createdAt,value
2023-11-13T00:58:51.041Z,6.5
2023-11-13T01:29:09.602Z,6.35
2023-11-13T01:59:35.305Z,6.3
2023-11-13T02:29:56.010Z,6.35
2023-11-13T03:00:15.156Z,6.35
2023-11-13T03:30:32.561Z,6.4
2023-11-13T04:00:50.935Z,6.45
2023-11-13T04:31:09.236Z,6.55
2023-11-13T05:01:36.982Z,6.5
2023-11-13T05:31:55.274Z,6.65
2023-11-13T06:02:13.967Z,6.75
2023-11-13T06:32:32.013Z,6.7
2023-11-13T07:02:50.728Z,6.75
2023-11-13T07:33:08.905Z,6.95
2023-11-13T08:03:26.954Z,7.2
2023-11-13T08:33:46.279Z,7.25
2023-11-13T09:04:04.961Z,7.35
2023-11-13T09:34:22.325Z,7.5
2023-11-13T10:04:42.076Z,7.7
2023-11-13T10:35:00.486Z,8.05
2023-11-13T11:05:29.734Z,8.15
2023-11-13T11:35:51.452Z,8.45
2023-11-13T12:06:10.923Z,8.75
2023-11-13T12:36:30.216Z,9.1
2023-11-13T13:06:48.673Z,9.35
2023-11-13T13:37:07.247Z,9.45
2023-11-13T14:07:26.024Z,9.65
2023-11-13T14:37:45.997Z,9.8
2023-11-13T15:08:04.287Z,9.9
2023-11-13T15:38:22.246Z,10.05
2023-11-13T16:08:43.297Z,12.4
2023-11-13T16:39:06.004Z,13.6
2023-11-13T17:09:25.375Z,13.7
2023-11-13T17:39:43.630Z,13.9
2023-11-13T18:10:02.424Z,14.1
2023-11-13T18:40:25.540Z,13.5
2023-11-13T19:10:44.056Z,13
2023-11-13T19:41:01.822Z,12.75
2023-11-13T20:11:19.627Z,12.55
2023-11-13T20:41:36.178Z,12.15
2023-11-13T21:11:54.639Z,11.5
2023-11-13T21:42:14.200Z,11.1
2023-11-13T22:12:32.368Z,11.1
2023-11-13T22:42:50.469Z,11.05
2023-11-13T23:13:08.475Z,10.85
2023-11-13T23:43:25.776Z,10.55
